sensor_id;sensor_type;location;lat;lon;timestamp;temperature;humidity
34460;DHT22;20704;51.260;22.558;2023-08-01T00:01:04;17.60;36.90
34460;DHT22;20704;51.260;22.558;2023-08-01T00:03:07;17.70;72.40
34460;DHT22;20704;51.260;22.558;2023-08-01T00:05:10;17.70;9.70
34460;DHT22;20704;51.260;22.558;2023-08-01T00:07:12;17.60;1.00
34460;DHT22;20704;51.260;22.558;2023-08-01T00:09:14;17.70;1.00
34460;DHT22;20704;51.260;22.558;2023-08-01T00:11:17;17.70;1.00
34460;DHT22;20704;51.260;22.558;2023-08-01T00:13:19;17.70;1.00
34460;DHT22;20704;51.260;22.558;2023-08-01T00:15:21;17.60;1.00
34460;DHT22;20704;51.260;22.558;2023-08-01T00:17:24;17.50;1.00
34460;DHT22;20704;51.260;22.558;2023-08-01T00:19:27;17.40;16.30
34460;DHT22;20704;51.260;22.558;2023-08-01T00:21:29;17.50;9.00
34460;DHT22;20704;51.260;22.558;2023-08-01T00:23:34;17.40;12.00
34460;DHT22;20704;51.260;22.558;2023-08-01T00:25:36;17.50;36.20
34460;DHT22;20704;51.260;22.558;2023-08-01T00:27:38;17.50;51.50
34460;DHT22;20704;51.260;22.558;2023-08-01T00:29:41;17.60;90.00
34460;DHT22;20704;51.260;22.558;2023-08-01T00:31:44;17.60;44.30
34460;DHT22;20704;51.260;22.558;2023-08-01T00:33:46;17.50;1.00
34460;DHT22;20704;51.260;22.558;2023-08-01T00:35:53;17.50;1.00
34460;DHT22;20704;51.260;22.558;2023-08-01T00:37:56;17.50;22.60
34460;DHT22;20704;51.260;22.558;2023-08-01T00:39:58;17.50;1.00
34460;DHT22;20704;51.260;22.558;2023-08-01T00:42:00;17.50;41.40
34460;DHT22;20704;51.260;22.558;2023-08-01T00:44:03;17.50;6.90
34460;DHT22;20704;51.260;22.558;2023-08-01T00:46:06;17.00;1.20
34460;DHT22;20704;51.260;22.558;2023-08-01T00:48:09;17.40;90.20
34460;DHT22;20704;51.260;22.558;2023-08-01T00:50:11;17.30;99.90
34460;DHT22;20704;51.260;22.558;2023-08-01T00:52:13;17.30;99.90
34460;DHT22;20704;51.260;22.558;2023-08-01T00:54:16;17.30;99.90
34460;DHT22;20704;51.260;22.558;2023-08-01T00:56:19;17.30;99.90
34460;DHT22;20704;51.260;22.558;2023-08-01T00:58:21;17.20;99.90
34460;DHT22;20704;51.260;22.558;2023-08-01T01:00:23;17.20;99.90
34460;DHT22;20704;51.260;22.558;2023-08-01T01:02:26;17.20;99.90
34460;DHT22;20704;51.260;22.558;2023-08-01T01:04:29;17.10;99.90
34460;DHT22;20704;51.260;22.558;2023-08-01T01:07:14;17.20;99.90
34460;DHT22;20704;51.260;22.558;2023-08-01T01:09:19;17.10;99.90
34460;DHT22;20704;51.260;22.558;2023-08-01T01:11:22;17.10;1.00
34460;DHT22;20704;51.260;22.558;2023-08-01T01:13:24;17.20;99.90
34460;DHT22;20704;51.260;22.558;2023-08-01T01:15:26;17.10;99.90
34460;DHT22;20704;51.260;22.558;2023-08-01T01:17:29;17.10;99.90
34460;DHT22;20704;51.260;22.558;2023-08-01T01:19:31;17.10;1.00
34460;DHT22;20704;51.260;22.558;2023-08-01T01:21:36;17.00;99.90
34460;DHT22;20704;51.260;22.558;2023-08-01T01:23:39;17.00;1.00
34460;DHT22;20704;51.260;22.558;2023-08-01T01:25:42;17.00;1.00
34460;DHT22;20704;51.260;22.558;2023-08-01T01:27:45;16.90;50.80
34460;DHT22;20704;51.260;22.558;2023-08-01T01:29:49;16.90;99.90
34460;DHT22;20704;51.260;22.558;2023-08-01T01:31:52;16.90;99.90
34460;DHT22;20704;51.260;22.558;2023-08-01T01:33:56;16.80;99.90
34460;DHT22;20704;51.260;22.558;2023-08-01T01:36:00;16.80;99.90
34460;DHT22;20704;51.260;22.558;2023-08-01T01:38:03;16.80;99.90
34460;DHT22;20704;51.260;22.558;2023-08-01T01:40:07;16.80;99.90
34460;DHT22;20704;51.260;22.558;2023-08-01T01:42:09;16.70;99.90
34460;DHT22;20704;51.260;22.558;2023-08-01T01:44:12;16.80;1.00
34460;DHT22;20704;51.260;22.558;2023-08-01T01:46:14;16.70;1.00
34460;DHT22;20704;51.260;22.558;2023-08-01T01:48:17;16.70;1.00
34460;DHT22;20704;51.260;22.558;2023-08-01T01:50:19;16.70;1.00
34460;DHT22;20704;51.260;22.558;2023-08-01T01:52:21;16.70;99.90
34460;DHT22;20704;51.260;22.558;2023-08-01T01:54:23;16.60;99.90
34460;DHT22;20704;51.260;22.558;2023-08-01T01:56:26;16.70;99.90
34460;DHT22;20704;51.260;22.558;2023-08-01T01:58:28;16.70;99.90
34460;DHT22;20704;51.260;22.558;2023-08-01T02:00:31;16.70;99.90
34460;DHT22;20704;51.260;22.558;2023-08-01T02:02:33;16.60;99.90
34460;DHT22;20704;51.260;22.558;2023-08-01T02:04:36;16.60;99.90
34460;DHT22;20704;51.260;22.558;2023-08-01T02:06:38;16.60;99.90
34460;DHT22;20704;51.260;22.558;2023-08-01T02:08:41;16.50;1.00
34460;DHT22;20704;51.260;22.558;2023-08-01T02:10:43;16.50;83.10
34460;DHT22;20704;51.260;22.558;2023-08-01T02:12:45;16.50;99.90
34460;DHT22;20704;51.260;22.558;2023-08-01T02:14:48;16.40;1.00
34460;DHT22;20704;51.260;22.558;2023-08-01T02:16:50;16.50;1.00
34460;DHT22;20704;51.260;22.558;2023-08-01T02:18:52;16.50;99.90
34460;DHT22;20704;51.260;22.558;2023-08-01T02:20:55;16.60;1.00
34460;DHT22;20704;51.260;22.558;2023-08-01T02:22:57;16.40;99.90
34460;DHT22;20704;51.260;22.558;2023-08-01T02:25:00;16.40;1.00
34460;DHT22;20704;51.260;22.558;2023-08-01T02:27:02;16.40;1.00
34460;DHT22;20704;51.260;22.558;2023-08-01T02:29:04;16.40;1.00
34460;DHT22;20704;51.260;22.558;2023-08-01T02:31:07;16.30;99.90
34460;DHT22;20704;51.260;22.558;2023-08-01T02:33:09;16.30;17.70
34460;DHT22;20704;51.260;22.558;2023-08-01T02:35:11;16.40;99.90
34460;DHT22;20704;51.260;22.558;2023-08-01T02:37:14;16.50;99.90
34460;DHT22;20704;51.260;22.558;2023-08-01T02:39:16;16.50;99.90
34460;DHT22;20704;51.260;22.558;2023-08-01T02:41:18;16.50;1.00
34460;DHT22;20704;51.260;22.558;2023-08-01T02:43:21;16.50;99.90
34460;DHT22;20704;51.260;22.558;2023-08-01T02:45:23;16.50;99.90
34460;DHT22;20704;51.260;22.558;2023-08-01T02:47:26;16.60;55.70
34460;DHT22;20704;51.260;22.558;2023-08-01T02:49:28;16.50;61.10
34460;DHT22;20704;51.260;22.558;2023-08-01T02:51:31;16.60;24.50
34460;DHT22;20704;51.260;22.558;2023-08-01T02:53:33;16.60;1.00
34460;DHT22;20704;51.260;22.558;2023-08-01T02:55:35;16.60;1.00
34460;DHT22;20704;51.260;22.558;2023-08-01T02:57:37;16.60;1.00
34460;DHT22;20704;51.260;22.558;2023-08-01T02:59:40;16.60;1.00
34460;DHT22;20704;51.260;22.558;2023-08-01T03:01:42;16.60;99.90
34460;DHT22;20704;51.260;22.558;2023-08-01T03:03:45;16.70;99.90
34460;DHT22;20704;51.260;22.558;2023-08-01T03:05:47;16.70;99.90
34460;DHT22;20704;51.260;22.558;2023-08-01T03:07:50;16.60;1.00
34460;DHT22;20704;51.260;22.558;2023-08-01T03:09:52;16.60;1.00
34460;DHT22;20704;51.260;22.558;2023-08-01T03:11:54;16.60;1.00
34460;DHT22;20704;51.260;22.558;2023-08-01T03:13:56;16.60;22.30
34460;DHT22;20704;51.260;22.558;2023-08-01T03:15:59;16.60;1.00
34460;DHT22;20704;51.260;22.558;2023-08-01T03:18:01;16.60;1.00
34460;DHT22;20704;51.260;22.558;2023-08-01T03:20:05;16.50;99.90
34460;DHT22;20704;51.260;22.558;2023-08-01T03:22:07;16.50;99.90
34460;DHT22;20704;51.260;22.558;2023-08-01T03:24:10;16.50;99.90
34460;DHT22;20704;51.260;22.558;2023-08-01T03:26:12;16.50;99.90
34460;DHT22;20704;51.260;22.558;2023-08-01T03:28:15;16.60;90.10
34460;DHT22;20704;51.260;22.558;2023-08-01T03:30:17;16.50;85.80
34460;DHT22;20704;51.260;22.558;2023-08-01T03:32:19;16.40;99.90
34460;DHT22;20704;51.260;22.558;2023-08-01T03:34:22;16.50;99.90
34460;DHT22;20704;51.260;22.558;2023-08-01T03:36:25;16.40;99.90
34460;DHT22;20704;51.260;22.558;2023-08-01T03:38:27;16.40;1.00
34460;DHT22;20704;51.260;22.558;2023-08-01T03:40:30;16.40;55.70
34460;DHT22;20704;51.260;22.558;2023-08-01T03:42:32;16.30;55.80
34460;DHT22;20704;51.260;22.558;2023-08-01T03:44:35;16.30;99.90
34460;DHT22;20704;51.260;22.558;2023-08-01T03:46:37;16.40;99.90
34460;DHT22;20704;51.260;22.558;2023-08-01T03:48:40;16.30;99.90
34460;DHT22;20704;51.260;22.558;2023-08-01T03:50:42;16.40;99.90
34460;DHT22;20704;51.260;22.558;2023-08-01T03:52:44;16.40;24.20
34460;DHT22;20704;51.260;22.558;2023-08-01T03:54:47;16.40;1.00
34460;DHT22;20704;51.260;22.558;2023-08-01T03:56:50;16.50;99.90
34460;DHT22;20704;51.260;22.558;2023-08-01T03:58:52;16.60;99.90
34460;DHT22;20704;51.260;22.558;2023-08-01T04:00:55;16.60;1.00
34460;DHT22;20704;51.260;22.558;2023-08-01T04:02:57;16.60;99.90
34460;DHT22;20704;51.260;22.558;2023-08-01T04:04:59;16.60;99.90
34460;DHT22;20704;51.260;22.558;2023-08-01T04:07:02;16.60;99.90
34460;DHT22;20704;51.260;22.558;2023-08-01T04:09:04;16.60;99.90
34460;DHT22;20704;51.260;22.558;2023-08-01T04:11:08;16.70;99.90
34460;DHT22;20704;51.260;22.558;2023-08-01T04:13:11;16.80;99.90
34460;DHT22;20704;51.260;22.558;2023-08-01T04:15:13;16.80;1.00
34460;DHT22;20704;51.260;22.558;2023-08-01T04:17:15;17.10;1.00
34460;DHT22;20704;51.260;22.558;2023-08-01T04:19:18;17.20;99.90
34460;DHT22;20704;51.260;22.558;2023-08-01T04:21:20;17.30;1.00
34460;DHT22;20704;51.260;22.558;2023-08-01T04:23:22;17.60;1.00
34460;DHT22;20704;51.260;22.558;2023-08-01T04:25:25;17.70;99.90
34460;DHT22;20704;51.260;22.558;2023-08-01T04:27:28;18.00;99.90
34460;DHT22;20704;51.260;22.558;2023-08-01T04:29:31;18.40;23.10
34460;DHT22;20704;51.260;22.558;2023-08-01T04:31:33;18.70;1.00
34460;DHT22;20704;51.260;22.558;2023-08-01T04:33:36;19.00;99.90
34460;DHT22;20704;51.260;22.558;2023-08-01T04:35:38;19.10;99.90
34460;DHT22;20704;51.260;22.558;2023-08-01T04:37:40;19.20;45.50
34460;DHT22;20704;51.260;22.558;2023-08-01T04:39:42;19.50;11.90
34460;DHT22;20704;51.260;22.558;2023-08-01T04:41:45;19.80;1.00
34460;DHT22;20704;51.260;22.558;2023-08-01T04:43:47;19.90;1.00
34460;DHT22;20704;51.260;22.558;2023-08-01T04:45:49;20.40;1.00
34460;DHT22;20704;51.260;22.558;2023-08-01T04:47:52;20.60;1.00
34460;DHT22;20704;51.260;22.558;2023-08-01T04:49:54;20.90;1.00
34460;DHT22;20704;51.260;22.558;2023-08-01T04:51:57;21.20;99.90
34460;DHT22;20704;51.260;22.558;2023-08-01T04:53:59;21.50;99.90
34460;DHT22;20704;51.260;22.558;2023-08-01T04:56:01;21.80;99.90
34460;DHT22;20704;51.260;22.558;2023-08-01T04:58:04;21.90;99.90
34460;DHT22;20704;51.260;22.558;2023-08-01T05:00:06;21.80;99.90
34460;DHT22;20704;51.260;22.558;2023-08-01T05:02:09;22.30;99.90
34460;DHT22;20704;51.260;22.558;2023-08-01T05:04:11;22.60;99.90
34460;DHT22;20704;51.260;22.558;2023-08-01T05:06:14;22.80;99.90
34460;DHT22;20704;51.260;22.558;2023-08-01T05:08:16;23.20;99.90
34460;DHT22;20704;51.260;22.558;2023-08-01T05:10:18;23.40;99.90
34460;DHT22;20704;51.260;22.558;2023-08-01T05:12:20;23.80;99.90
34460;DHT22;20704;51.260;22.558;2023-08-01T05:14:23;24.10;99.90
34460;DHT22;20704;51.260;22.558;2023-08-01T05:16:25;24.30;99.90
34460;DHT22;20704;51.260;22.558;2023-08-01T05:18:27;24.20;99.90
34460;DHT22;20704;51.260;22.558;2023-08-01T05:20:30;24.40;99.90
34460;DHT22;20704;51.260;22.558;2023-08-01T05:22:33;24.60;99.90
34460;DHT22;20704;51.260;22.558;2023-08-01T05:24:36;24.80;99.90
34460;DHT22;20704;51.260;22.558;2023-08-01T05:26:39;24.60;99.90
34460;DHT22;20704;51.260;22.558;2023-08-01T05:28:42;24.70;99.90
34460;DHT22;20704;51.260;22.558;2023-08-01T05:30:45;24.70;99.90
34460;DHT22;20704;51.260;22.558;2023-08-01T05:32:47;24.60;99.90
34460;DHT22;20704;51.260;22.558;2023-08-01T05:34:50;25.10;99.90
34460;DHT22;20704;51.260;22.558;2023-08-01T05:36:52;25.20;99.90
34460;DHT22;20704;51.260;22.558;2023-08-01T05:38:54;25.50;99.90
34460;DHT22;20704;51.260;22.558;2023-08-01T05:40:56;25.70;99.90
34460;DHT22;20704;51.260;22.558;2023-08-01T05:42:59;25.90;99.90
34460;DHT22;20704;51.260;22.558;2023-08-01T05:45:02;25.60;99.90
34460;DHT22;20704;51.260;22.558;2023-08-01T05:47:06;25.80;99.90
34460;DHT22;20704;51.260;22.558;2023-08-01T05:49:08;25.90;99.90
34460;DHT22;20704;51.260;22.558;2023-08-01T05:51:11;26.10;99.90
34460;DHT22;20704;51.260;22.558;2023-08-01T05:53:16;26.30;99.90
34460;DHT22;20704;51.260;22.558;2023-08-01T05:55:19;26.40;99.90
34460;DHT22;20704;51.260;22.558;2023-08-01T05:57:21;26.20;99.90
34460;DHT22;20704;51.260;22.558;2023-08-01T05:59:24;26.30;99.90
34460;DHT22;20704;51.260;22.558;2023-08-01T06:01:26;26.40;99.90
34460;DHT22;20704;51.260;22.558;2023-08-01T06:03:29;26.60;99.90
34460;DHT22;20704;51.260;22.558;2023-08-01T06:05:31;26.40;99.90
34460;DHT22;20704;51.260;22.558;2023-08-01T06:07:34;26.40;99.90
34460;DHT22;20704;51.260;22.558;2023-08-01T06:09:36;26.60;99.90
34460;DHT22;20704;51.260;22.558;2023-08-01T06:11:38;26.70;99.90
34460;DHT22;20704;51.260;22.558;2023-08-01T06:13:40;26.80;99.90
34460;DHT22;20704;51.260;22.558;2023-08-01T06:15:43;26.80;99.90
34460;DHT22;20704;51.260;22.558;2023-08-01T06:17:45;26.70;99.90
34460;DHT22;20704;51.260;22.558;2023-08-01T06:19:48;26.80;99.90
34460;DHT22;20704;51.260;22.558;2023-08-01T06:21:51;26.70;99.90
34460;DHT22;20704;51.260;22.558;2023-08-01T06:23:54;26.60;99.90
34460;DHT22;20704;51.260;22.558;2023-08-01T06:25:56;27.00;99.90
34460;DHT22;20704;51.260;22.558;2023-08-01T06:27:59;27.10;99.90
34460;DHT22;20704;51.260;22.558;2023-08-01T06:30:01;27.10;99.90
34460;DHT22;20704;51.260;22.558;2023-08-01T06:32:04;27.30;99.90
34460;DHT22;20704;51.260;22.558;2023-08-01T06:34:06;27.50;99.90
34460;DHT22;20704;51.260;22.558;2023-08-01T06:36:09;27.80;99.90
34460;DHT22;20704;51.260;22.558;2023-08-01T06:38:11;28.10;99.90
34460;DHT22;20704;51.260;22.558;2023-08-01T06:40:13;28.40;99.90
34460;DHT22;20704;51.260;22.558;2023-08-01T06:42:16;28.80;99.90
34460;DHT22;20704;51.260;22.558;2023-08-01T06:44:18;29.10;99.90
34460;DHT22;20704;51.260;22.558;2023-08-01T06:46:20;28.80;99.90
34460;DHT22;20704;51.260;22.558;2023-08-01T06:48:23;28.90;99.90
34460;DHT22;20704;51.260;22.558;2023-08-01T06:50:25;28.60;99.90
34460;DHT22;20704;51.260;22.558;2023-08-01T06:52:28;28.10;99.90
34460;DHT22;20704;51.260;22.558;2023-08-01T06:54:31;28.10;99.90
34460;DHT22;20704;51.260;22.558;2023-08-01T06:56:34;28.10;99.90
34460;DHT22;20704;51.260;22.558;2023-08-01T06:58:36;28.20;99.90
34460;DHT22;20704;51.260;22.558;2023-08-01T07:00:38;28.00;99.90
34460;DHT22;20704;51.260;22.558;2023-08-01T07:02:41;27.60;99.90
34460;DHT22;20704;51.260;22.558;2023-08-01T07:04:43;28.00;99.90
34460;DHT22;20704;51.260;22.558;2023-08-01T07:06:45;27.90;99.90
34460;DHT22;20704;51.260;22.558;2023-08-01T07:08:48;27.60;99.90
34460;DHT22;20704;51.260;22.558;2023-08-01T07:10:50;27.70;99.90
34460;DHT22;20704;51.260;22.558;2023-08-01T07:12:53;27.40;99.90
34460;DHT22;20704;51.260;22.558;2023-08-01T07:14:55;28.00;99.90
34460;DHT22;20704;51.260;22.558;2023-08-01T07:16:58;27.80;99.90
34460;DHT22;20704;51.260;22.558;2023-08-01T07:19:00;27.90;99.90
34460;DHT22;20704;51.260;22.558;2023-08-01T07:21:04;27.90;99.90
34460;DHT22;20704;51.260;22.558;2023-08-01T07:23:06;28.00;99.90
34460;DHT22;20704;51.260;22.558;2023-08-01T07:25:09;28.30;99.90
34460;DHT22;20704;51.260;22.558;2023-08-01T07:27:13;28.00;99.30
34460;DHT22;20704;51.260;22.558;2023-08-01T07:29:16;27.70;98.20
34460;DHT22;20704;51.260;22.558;2023-08-01T07:31:18;27.70;97.90
34460;DHT22;20704;51.260;22.558;2023-08-01T07:33:21;28.10;99.20
34460;DHT22;20704;51.260;22.558;2023-08-01T07:35:23;27.50;97.20
34460;DHT22;20704;51.260;22.558;2023-08-01T07:37:25;27.90;97.50
34460;DHT22;20704;51.260;22.558;2023-08-01T07:39:30;28.30;98.10
34460;DHT22;20704;51.260;22.558;2023-08-01T07:41:32;28.60;98.00
34460;DHT22;20704;51.260;22.558;2023-08-01T07:43:36;28.80;98.40
34460;DHT22;20704;51.260;22.558;2023-08-01T07:45:38;28.90;98.10
34460;DHT22;20704;51.260;22.558;2023-08-01T07:47:41;29.00;97.90
34460;DHT22;20704;51.260;22.558;2023-08-01T07:49:43;28.90;97.70
34460;DHT22;20704;51.260;22.558;2023-08-01T07:51:45;28.60;96.80
34460;DHT22;20704;51.260;22.558;2023-08-01T07:53:49;28.10;96.20
34460;DHT22;20704;51.260;22.558;2023-08-01T07:55:52;27.90;95.60
34460;DHT22;20704;51.260;22.558;2023-08-01T07:57:55;28.00;95.80
34460;DHT22;20704;51.260;22.558;2023-08-01T07:59:57;28.20;96.70
34460;DHT22;20704;51.260;22.558;2023-08-01T08:02:00;28.30;96.10
34460;DHT22;20704;51.260;22.558;2023-08-01T08:04:02;28.30;96.00
34460;DHT22;20704;51.260;22.558;2023-08-01T08:06:05;28.20;96.20
34460;DHT22;20704;51.260;22.558;2023-08-01T08:08:07;28.00;95.10
34460;DHT22;20704;51.260;22.558;2023-08-01T08:10:10;27.60;94.40
34460;DHT22;20704;51.260;22.558;2023-08-01T08:12:12;26.80;93.40
34460;DHT22;20704;51.260;22.558;2023-08-01T08:14:14;26.80;92.60
34460;DHT22;20704;51.260;22.558;2023-08-01T08:16:17;26.80;92.60
34460;DHT22;20704;51.260;22.558;2023-08-01T08:18:20;26.80;92.30
34460;DHT22;20704;51.260;22.558;2023-08-01T08:20:22;26.60;92.40
34460;DHT22;20704;51.260;22.558;2023-08-01T08:22:24;26.70;92.80
34460;DHT22;20704;51.260;22.558;2023-08-01T08:24:27;26.60;92.90
34460;DHT22;20704;51.260;22.558;2023-08-01T08:26:29;26.50;94.50
34460;DHT22;20704;51.260;22.558;2023-08-01T08:28:32;26.60;93.50
34460;DHT22;20704;51.260;22.558;2023-08-01T08:30:35;26.60;93.50
34460;DHT22;20704;51.260;22.558;2023-08-01T08:32:38;26.70;93.70
34460;DHT22;20704;51.260;22.558;2023-08-01T08:34:41;26.60;94.30
34460;DHT22;20704;51.260;22.558;2023-08-01T08:36:43;27.00;94.80
34460;DHT22;20704;51.260;22.558;2023-08-01T08:38:45;27.10;94.50
34460;DHT22;20704;51.260;22.558;2023-08-01T08:41:09;27.60;95.00
34460;DHT22;20704;51.260;22.558;2023-08-01T08:43:12;28.00;96.90
34460;DHT22;20704;51.260;22.558;2023-08-01T08:45:19;28.00;96.10
34460;DHT22;20704;51.260;22.558;2023-08-01T08:47:25;28.00;95.30
34460;DHT22;20704;51.260;22.558;2023-08-01T08:49:28;27.90;95.20
34460;DHT22;20704;51.260;22.558;2023-08-01T08:51:31;27.70;94.90
34460;DHT22;20704;51.260;22.558;2023-08-01T08:53:35;27.40;94.40
34460;DHT22;20704;51.260;22.558;2023-08-01T08:55:40;27.20;94.50
34460;DHT22;20704;51.260;22.558;2023-08-01T08:57:43;27.00;93.90
34460;DHT22;20704;51.260;22.558;2023-08-01T08:59:47;27.20;94.40
34460;DHT22;20704;51.260;22.558;2023-08-01T09:01:50;26.50;93.50
34460;DHT22;20704;51.260;22.558;2023-08-01T09:03:53;26.60;93.80
34460;DHT22;20704;51.260;22.558;2023-08-01T09:06:07;26.40;93.60
34460;DHT22;20704;51.260;22.558;2023-08-01T09:08:19;26.30;93.80
34460;DHT22;20704;51.260;22.558;2023-08-01T09:10:22;26.20;94.60
34460;DHT22;20704;51.260;22.558;2023-08-01T09:12:25;26.30;94.40
34460;DHT22;20704;51.260;22.558;2023-08-01T09:14:28;26.50;94.60
34460;DHT22;20704;51.260;22.558;2023-08-01T09:16:33;26.60;95.40
34460;DHT22;20704;51.260;22.558;2023-08-01T09:18:46;26.80;94.50
34460;DHT22;20704;51.260;22.558;2023-08-01T09:20:49;27.10;95.00
34460;DHT22;20704;51.260;22.558;2023-08-01T09:22:51;27.20;95.00
34460;DHT22;20704;51.260;22.558;2023-08-01T09:24:54;27.40;95.30
34460;DHT22;20704;51.260;22.558;2023-08-01T09:27:03;27.60;95.50
34460;DHT22;20704;51.260;22.558;2023-08-01T09:29:07;27.70;95.70
34460;DHT22;20704;51.260;22.558;2023-08-01T09:31:10;27.60;95.10
34460;DHT22;20704;51.260;22.558;2023-08-01T09:33:13;27.60;95.10
34460;DHT22;20704;51.260;22.558;2023-08-01T09:35:15;27.60;94.70
34460;DHT22;20704;51.260;22.558;2023-08-01T09:37:18;27.60;95.00
34460;DHT22;20704;51.260;22.558;2023-08-01T09:39:23;27.50;95.00
34460;DHT22;20704;51.260;22.558;2023-08-01T09:41:26;27.60;95.00
34460;DHT22;20704;51.260;22.558;2023-08-01T09:43:34;27.40;95.20
34460;DHT22;20704;51.260;22.558;2023-08-01T09:45:48;27.10;94.70
34460;DHT22;20704;51.260;22.558;2023-08-01T09:47:50;27.20;94.50
34460;DHT22;20704;51.260;22.558;2023-08-01T09:49:53;27.30;95.10
34460;DHT22;20704;51.260;22.558;2023-08-01T09:51:56;27.30;94.90
34460;DHT22;20704;51.260;22.558;2023-08-01T09:53:59;27.30;94.80
34460;DHT22;20704;51.260;22.558;2023-08-01T09:56:02;27.30;94.60
34460;DHT22;20704;51.260;22.558;2023-08-01T09:58:06;27.10;94.50
34460;DHT22;20704;51.260;22.558;2023-08-01T10:00:09;26.90;93.90
34460;DHT22;20704;51.260;22.558;2023-08-01T10:02:15;26.90;94.10
34460;DHT22;20704;51.260;22.558;2023-08-01T10:04:25;26.70;94.40
34460;DHT22;20704;51.260;22.558;2023-08-01T10:06:32;26.70;94.20
34460;DHT22;20704;51.260;22.558;2023-08-01T10:08:35;26.30;94.00
34460;DHT22;20704;51.260;22.558;2023-08-01T10:10:38;26.20;93.70
34460;DHT22;20704;51.260;22.558;2023-08-01T10:12:45;26.00;99.20
34460;DHT22;20704;51.260;22.558;2023-08-01T10:14:50;26.10;94.00
34460;DHT22;20704;51.260;22.558;2023-08-01T10:16:53;26.00;94.00
34460;DHT22;20704;51.260;22.558;2023-08-01T10:18:57;25.90;94.20
34460;DHT22;20704;51.260;22.558;2023-08-01T10:21:01;25.90;94.70
34460;DHT22;20704;51.260;22.558;2023-08-01T10:23:05;25.80;94.70
34460;DHT22;20704;51.260;22.558;2023-08-01T10:25:09;25.90;94.80
34460;DHT22;20704;51.260;22.558;2023-08-01T10:27:20;25.80;95.00
34460;DHT22;20704;51.260;22.558;2023-08-01T10:29:36;25.90;95.60
34460;DHT22;20704;51.260;22.558;2023-08-01T10:31:38;25.90;96.00
34460;DHT22;20704;51.260;22.558;2023-08-01T10:33:44;25.80;96.00
34460;DHT22;20704;51.260;22.558;2023-08-01T10:35:46;25.70;97.00
34460;DHT22;20704;51.260;22.558;2023-08-01T10:37:49;25.80;96.90
34460;DHT22;20704;51.260;22.558;2023-08-01T10:39:58;25.60;99.90
34460;DHT22;20704;51.260;22.558;2023-08-01T10:42:03;25.60;97.40
34460;DHT22;20704;51.260;22.558;2023-08-01T10:44:12;25.60;97.80
34460;DHT22;20704;51.260;22.558;2023-08-01T10:46:15;25.60;98.30
34460;DHT22;20704;51.260;22.558;2023-08-01T10:48:17;25.50;98.10
34460;DHT22;20704;51.260;22.558;2023-08-01T10:50:20;25.60;98.70
34460;DHT22;20704;51.260;22.558;2023-08-01T10:52:24;25.60;99.10
34460;DHT22;20704;51.260;22.558;2023-08-01T10:54:31;25.60;99.70
34460;DHT22;20704;51.260;22.558;2023-08-01T10:56:36;25.60;99.90
34460;DHT22;20704;51.260;22.558;2023-08-01T10:58:38;25.60;99.90
34460;DHT22;20704;51.260;22.558;2023-08-01T11:00:43;25.60;99.90
34460;DHT22;20704;51.260;22.558;2023-08-01T11:02:50;25.50;99.90
34460;DHT22;20704;51.260;22.558;2023-08-01T11:05:01;25.60;99.90
34460;DHT22;20704;51.260;22.558;2023-08-01T11:07:04;25.60;99.90
34460;DHT22;20704;51.260;22.558;2023-08-01T11:09:15;25.60;99.90
34460;DHT22;20704;51.260;22.558;2023-08-01T11:11:18;25.60;99.90
34460;DHT22;20704;51.260;22.558;2023-08-01T11:13:20;25.60;99.90
34460;DHT22;20704;51.260;22.558;2023-08-01T11:15:23;25.50;99.90
34460;DHT22;20704;51.260;22.558;2023-08-01T11:17:25;25.50;99.90
34460;DHT22;20704;51.260;22.558;2023-08-01T11:19:28;25.60;99.90
34460;DHT22;20704;51.260;22.558;2023-08-01T11:21:31;25.60;99.90
34460;DHT22;20704;51.260;22.558;2023-08-01T11:23:37;25.50;99.90
34460;DHT22;20704;51.260;22.558;2023-08-01T11:25:43;25.50;99.90
34460;DHT22;20704;51.260;22.558;2023-08-01T11:27:47;25.50;99.90
34460;DHT22;20704;51.260;22.558;2023-08-01T11:29:49;25.60;99.90
34460;DHT22;20704;51.260;22.558;2023-08-01T11:31:59;25.40;99.90
34460;DHT22;20704;51.260;22.558;2023-08-01T11:34:02;25.40;99.90
34460;DHT22;20704;51.260;22.558;2023-08-01T11:36:05;25.30;99.90
34460;DHT22;20704;51.260;22.558;2023-08-01T11:38:08;25.30;99.90
34460;DHT22;20704;51.260;22.558;2023-08-01T11:40:11;25.30;99.90
34460;DHT22;20704;51.260;22.558;2023-08-01T11:42:17;25.10;99.90
34460;DHT22;20704;51.260;22.558;2023-08-01T11:44:23;25.10;99.90
34460;DHT22;20704;51.260;22.558;2023-08-01T11:46:31;25.00;99.90
34460;DHT22;20704;51.260;22.558;2023-08-01T11:48:35;24.90;99.90
34460;DHT22;20704;51.260;22.558;2023-08-01T11:50:38;24.80;99.90
34460;DHT22;20704;51.260;22.558;2023-08-01T11:52:40;24.70;99.90
34460;DHT22;20704;51.260;22.558;2023-08-01T11:54:46;24.70;99.90
34460;DHT22;20704;51.260;22.558;2023-08-01T11:56:48;24.60;99.90
34460;DHT22;20704;51.260;22.558;2023-08-01T11:58:50;24.50;99.90
34460;DHT22;20704;51.260;22.558;2023-08-01T12:01:04;24.40;99.90
34460;DHT22;20704;51.260;22.558;2023-08-01T12:03:09;24.40;99.90
34460;DHT22;20704;51.260;22.558;2023-08-01T12:05:24;24.40;99.90
34460;DHT22;20704;51.260;22.558;2023-08-01T12:07:26;24.30;99.90
34460;DHT22;20704;51.260;22.558;2023-08-01T12:09:31;24.40;99.90
34460;DHT22;20704;51.260;22.558;2023-08-01T12:11:34;24.40;99.90
34460;DHT22;20704;51.260;22.558;2023-08-01T12:13:37;24.50;99.90
34460;DHT22;20704;51.260;22.558;2023-08-01T12:15:39;24.60;99.90
34460;DHT22;20704;51.260;22.558;2023-08-01T12:17:41;24.60;99.90
34460;DHT22;20704;51.260;22.558;2023-08-01T12:19:44;24.60;99.90
34460;DHT22;20704;51.260;22.558;2023-08-01T12:21:49;24.60;99.90
34460;DHT22;20704;51.260;22.558;2023-08-01T12:23:52;24.60;99.90
34460;DHT22;20704;51.260;22.558;2023-08-01T12:25:54;24.70;99.90
34460;DHT22;20704;51.260;22.558;2023-08-01T12:27:57;24.70;99.90
34460;DHT22;20704;51.260;22.558;2023-08-01T12:29:59;24.70;99.90
34460;DHT22;20704;51.260;22.558;2023-08-01T12:32:03;24.70;99.90
34460;DHT22;20704;51.260;22.558;2023-08-01T12:34:05;24.70;99.90
34460;DHT22;20704;51.260;22.558;2023-08-01T12:36:08;24.70;99.90
34460;DHT22;20704;51.260;22.558;2023-08-01T12:38:10;24.80;99.90
34460;DHT22;20704;51.260;22.558;2023-08-01T12:40:12;24.80;99.90
34460;DHT22;20704;51.260;22.558;2023-08-01T12:42:15;24.90;99.90
34460;DHT22;20704;51.260;22.558;2023-08-01T12:44:17;24.90;99.90
34460;DHT22;20704;51.260;22.558;2023-08-01T12:46:19;25.00;99.90
34460;DHT22;20704;51.260;22.558;2023-08-01T12:48:22;25.00;99.90